createdAt,value
2022-08-25T00:02:01.977Z,11.63
2022-08-25T00:04:31.499Z,11.03
2022-08-25T00:07:03.519Z,12.30
2022-08-25T00:09:32.103Z,12.03
2022-08-25T00:11:59.938Z,11.93
2022-08-25T00:14:28.634Z,12.17
2022-08-25T00:16:56.671Z,16.17
2022-08-25T00:19:25.314Z,12.60
2022-08-25T00:21:53.100Z,11.93
2022-08-25T00:24:22.467Z,10.50
2022-08-25T00:26:51.581Z,13.63
2022-08-25T00:29:19.618Z,14.43
2022-08-25T00:31:47.739Z,13.50
2022-08-25T00:34:16.395Z,15.00
2022-08-25T00:36:44.467Z,13.60
2022-08-25T00:39:12.771Z,13.13
2022-08-25T00:41:42.377Z,11.00
2022-08-25T00:44:11.185Z,11.83
2022-08-25T00:46:40.216Z,12.50
2022-08-25T00:49:09.163Z,13.20
2022-08-25T00:51:46.012Z,13.03
2022-08-25T00:54:15.867Z,14.27
2022-08-25T00:56:45.310Z,17.47
2022-08-25T00:59:13.881Z,12.87
2022-08-25T01:01:41.924Z,11.90
2022-08-25T01:04:09.813Z,12.07
2022-08-25T01:06:40.076Z,17.73
2022-08-25T01:09:08.711Z,11.40
2022-08-25T01:11:36.645Z,12.10
2022-08-25T01:14:07.107Z,12.03
2022-08-25T01:16:35.540Z,13.00
2022-08-25T01:19:03.121Z,11.27
2022-08-25T01:21:34.449Z,12.70
2022-08-25T01:24:02.463Z,11.00
2022-08-25T01:26:31.649Z,12.80
2022-08-25T01:29:18.245Z,11.57
2022-08-25T01:31:46.161Z,10.80
2022-08-25T01:34:13.727Z,11.30
2022-08-25T01:36:43.768Z,12.07
2022-08-25T01:39:12.494Z,14.10
2022-08-25T01:41:45.867Z,12.53
2022-08-25T01:44:16.146Z,12.30
2022-08-25T01:46:44.590Z,13.73
2022-08-25T01:49:12.513Z,11.70
2022-08-25T01:51:43.447Z,11.90
2022-08-25T01:54:12.358Z,13.10
2022-08-25T01:56:40.057Z,13.97
2022-08-25T01:59:08.006Z,12.30
2022-08-25T02:01:35.584Z,13.57
2022-08-25T02:04:03.739Z,14.40
2022-08-25T02:06:35.814Z,15.33
2022-08-25T02:09:05.735Z,12.87
2022-08-25T02:11:35.680Z,18.00
2022-08-25T02:14:03.423Z,14.73
2022-08-25T02:16:32.823Z,13.27
2022-08-25T02:19:01.364Z,13.97
2022-08-25T02:21:29.573Z,14.10
2022-08-25T02:23:57.890Z,11.70
2022-08-25T02:26:25.965Z,13.97
2022-08-25T02:28:55.239Z,15.47
2022-08-25T02:31:23.757Z,14.70
2022-08-25T02:33:51.540Z,13.40
2022-08-25T02:36:19.107Z,15.00
2022-08-25T02:38:47.546Z,13.73
2022-08-25T02:41:16.631Z,13.23
2022-08-25T02:43:44.640Z,14.97
2022-08-25T02:46:13.712Z,13.57
2022-08-25T02:49:03.534Z,13.77
2022-08-25T02:51:31.981Z,15.47
2022-08-25T02:54:02.615Z,14.10
2022-08-25T02:56:31.344Z,15.77
2022-08-25T02:58:59.306Z,13.73
2022-08-25T03:01:29.196Z,14.97
2022-08-25T03:03:57.038Z,13.60
2022-08-25T03:06:25.213Z,14.70
2022-08-25T03:08:53.711Z,16.00
2022-08-25T03:11:21.734Z,14.83
2022-08-25T03:13:51.045Z,14.97
2022-08-25T03:16:19.100Z,15.40
2022-08-25T03:18:48.269Z,14.27
2022-08-25T03:21:16.353Z,15.27
2022-08-25T03:23:46.087Z,15.90
2022-08-25T03:26:31.531Z,13.70
2022-08-25T03:28:59.433Z,14.50
2022-08-25T03:31:27.664Z,15.87
2022-08-25T03:33:57.369Z,13.20
2022-08-25T03:36:25.336Z,15.13
2022-08-25T03:38:53.830Z,15.10
2022-08-25T03:41:23.412Z,15.30
2022-08-25T03:43:53.893Z,15.07
2022-08-25T03:46:23.109Z,15.43
2022-08-25T03:48:51.922Z,14.90
2022-08-25T03:51:24.829Z,14.80
2022-08-25T03:53:52.974Z,14.73
2022-08-25T03:56:20.960Z,14.70
2022-08-25T03:58:49.473Z,15.03
2022-08-25T04:01:18.186Z,15.50
2022-08-25T04:03:46.276Z,15.17
2022-08-25T04:06:14.221Z,13.90
2022-08-25T04:08:43.164Z,15.53
2022-08-25T04:11:13.048Z,15.23
2022-08-25T04:13:42.083Z,15.67
2022-08-25T04:16:11.653Z,15.00
2022-08-25T04:18:39.445Z,14.87
2022-08-25T04:21:09.227Z,15.77
2022-08-25T04:23:36.874Z,15.23
2022-08-25T04:26:11.050Z,15.33
2022-08-25T04:28:39.044Z,15.50
2022-08-25T04:31:07.792Z,15.43
2022-08-25T04:33:36.522Z,15.90
2022-08-25T04:36:06.746Z,15.97
2022-08-25T04:38:38.220Z,16.23
2022-08-25T04:41:07.183Z,16.00
2022-08-25T04:43:36.985Z,15.80
2022-08-25T04:46:06.864Z,16.03
2022-08-25T04:48:35.055Z,16.73
2022-08-25T04:51:05.571Z,16.93
2022-08-25T04:53:33.696Z,17.10
2022-08-25T04:56:03.803Z,16.90
2022-08-25T04:58:31.991Z,17.97
2022-08-25T05:01:03.994Z,16.47
2022-08-25T05:03:32.108Z,17.30
2022-08-25T05:06:00.001Z,18.10
2022-08-25T05:08:28.366Z,18.80
2022-08-25T05:10:56.744Z,19.13
2022-08-25T05:13:25.224Z,18.57
2022-08-25T05:15:54.724Z,19.27
2022-08-25T05:18:25.067Z,18.80
2022-08-25T05:20:54.533Z,19.30
2022-08-25T05:23:22.630Z,19.03
2022-08-25T05:25:50.907Z,20.30
2022-08-25T05:28:18.995Z,19.70
2022-08-25T05:30:48.986Z,19.57
2022-08-25T05:33:18.334Z,21.00
2022-08-25T05:35:47.301Z,22.00
2022-08-25T05:38:15.589Z,23.63
2022-08-25T05:40:44.901Z,22.60
2022-08-25T05:43:14.714Z,23.80
2022-08-25T05:45:42.789Z,22.90
2022-08-25T05:48:10.660Z,22.90
2022-08-25T05:50:38.260Z,21.57
2022-08-25T05:53:07.450Z,20.10
2022-08-25T05:55:35.863Z,19.33
2022-08-25T05:58:03.436Z,18.80
2022-08-25T06:00:31.318Z,19.20
2022-08-25T06:02:58.248Z,19.00
2022-08-25T06:05:26.025Z,18.30
2022-08-25T06:07:53.766Z,18.57
2022-08-25T06:10:23.331Z,18.47
2022-08-25T06:12:51.105Z,36.93
2022-08-25T06:15:22.011Z,21.80
2022-08-25T06:17:50.071Z,21.20
2022-08-25T06:20:19.082Z,21.10
2022-08-25T06:22:50.653Z,20.03
2022-08-25T06:25:19.403Z,19.43
2022-08-25T06:27:48.802Z,20.13
2022-08-25T06:30:22.438Z,20.47
2022-08-25T06:32:52.399Z,20.00
2022-08-25T06:35:21.054Z,20.77
2022-08-25T06:37:48.675Z,20.30
2022-08-25T06:40:17.305Z,20.23
2022-08-25T06:42:50.278Z,19.40
2022-08-25T06:45:18.940Z,18.97
2022-08-25T06:47:46.562Z,20.03
2022-08-25T06:50:14.547Z,20.87
2022-08-25T06:52:43.065Z,18.63
2022-08-25T06:55:10.972Z,18.10
2022-08-25T06:57:38.567Z,19.13
2022-08-25T07:00:09.183Z,19.80
2022-08-25T07:02:38.448Z,20.70
2022-08-25T07:05:08.178Z,19.63
2022-08-25T07:07:43.100Z,18.50
2022-08-25T07:10:12.856Z,20.90
2022-08-25T07:12:40.551Z,22.47
2022-08-25T07:15:19.935Z,19.57
2022-08-25T07:17:48.315Z,18.73
2022-08-25T07:20:16.793Z,27.90
2022-08-25T07:22:44.606Z,20.20
2022-08-25T07:25:12.540Z,20.27
2022-08-25T07:27:41.273Z,19.57
2022-08-25T07:30:12.227Z,20.60
2022-08-25T07:32:43.121Z,19.77
2022-08-25T07:38:10.146Z,17.10
2022-08-25T07:40:42.741Z,17.30
2022-08-25T07:43:11.278Z,17.27
2022-08-25T07:45:40.577Z,17.00
2022-08-25T07:48:19.647Z,18.07
2022-08-25T07:50:48.363Z,17.70
2022-08-25T07:53:17.154Z,18.83
2022-08-25T07:55:47.162Z,19.77
2022-08-25T07:58:15.285Z,20.00
2022-08-25T08:00:44.428Z,19.80
2022-08-25T08:03:19.854Z,19.17
2022-08-25T08:05:59.944Z,21.70
2022-08-25T08:08:27.800Z,24.63
2022-08-25T08:11:05.082Z,21.33
2022-08-25T08:13:38.007Z,19.80
2022-08-25T08:16:10.880Z,21.27
2022-08-25T08:18:41.759Z,21.87
2022-08-25T08:21:12.437Z,19.80
2022-08-25T08:23:40.023Z,21.23
2022-08-25T08:26:07.936Z,19.03
2022-08-25T08:28:37.139Z,19.87
2022-08-25T08:31:05.614Z,19.27
2022-08-25T08:33:40.697Z,19.33
2022-08-25T08:36:11.028Z,19.63
2022-08-25T08:38:40.515Z,20.13
2022-08-25T08:41:30.580Z,21.03
2022-08-25T08:44:07.349Z,21.30
2022-08-25T08:46:39.119Z,19.80
2022-08-25T08:49:13.987Z,19.47
2022-08-25T08:51:46.420Z,19.07
2022-08-25T08:54:18.576Z,18.80
2022-08-25T08:56:48.579Z,17.87
2022-08-25T08:59:19.271Z,16.57
2022-08-25T09:01:48.193Z,15.53
2022-08-25T09:04:27.964Z,14.57
2022-08-25T09:06:56.384Z,14.67
2022-08-25T09:09:26.498Z,14.87
2022-08-25T09:11:59.574Z,14.93
2022-08-25T09:14:38.365Z,13.57
2022-08-25T09:17:07.932Z,14.47
2022-08-25T09:19:45.506Z,15.20
2022-08-25T09:22:35.787Z,13.83
2022-08-25T09:25:08.924Z,13.80
2022-08-25T09:27:40.450Z,14.50
2022-08-25T09:30:10.052Z,15.27
2022-08-25T09:32:40.286Z,14.73
2022-08-25T09:35:13.431Z,13.10
2022-08-25T09:37:42.770Z,13.70
2022-08-25T09:40:11.985Z,12.47
2022-08-25T09:42:50.869Z,12.50
2022-08-25T09:45:32.504Z,12.20
2022-08-25T09:48:01.287Z,10.40
2022-08-25T09:50:34.982Z,11.00
2022-08-25T09:53:18.662Z,12.00
2022-08-25T09:55:53.363Z,11.10
2022-08-25T09:58:27.958Z,10.47
2022-08-25T10:01:02.926Z,11.13
2022-08-25T10:03:31.228Z,10.90
2022-08-25T10:06:07.993Z,9.83
2022-08-25T10:08:52.691Z,10.63
2022-08-25T10:11:31.556Z,10.20
2022-08-25T10:14:02.544Z,10.57
2022-08-25T10:16:35.601Z,10.60
2022-08-25T10:19:06.759Z,11.67
2022-08-25T10:21:36.750Z,10.37
2022-08-25T10:24:06.489Z,9.73
2022-08-25T10:26:55.640Z,10.70
2022-08-25T10:29:32.765Z,9.57
2022-08-25T10:32:09.011Z,8.90
2022-08-25T10:34:45.992Z,10.30
2022-08-25T10:37:32.629Z,9.67
2022-08-25T10:40:06.543Z,9.33
2022-08-25T10:42:37.721Z,8.67
2022-08-25T10:45:35.484Z,8.97
2022-08-25T10:48:13.001Z,9.17
2022-08-25T10:50:45.406Z,10.07
2022-08-25T10:53:24.293Z,9.33
2022-08-25T10:55:59.174Z,8.60
2022-08-25T10:58:32.295Z,9.50
2022-08-25T11:01:05.631Z,11.10
2022-08-25T11:03:45.414Z,8.97
2022-08-25T11:06:15.671Z,10.80
2022-08-25T11:08:45.966Z,9.13
2022-08-25T11:11:21.643Z,8.00
2022-08-25T11:13:52.950Z,8.53
2022-08-25T11:16:22.643Z,8.90
2022-08-25T11:18:54.630Z,7.73
2022-08-25T11:21:24.702Z,11.20
2022-08-25T11:23:59.427Z,8.80
2022-08-25T11:26:31.863Z,9.13
2022-08-25T11:29:02.807Z,9.37
2022-08-25T11:31:31.781Z,9.00
2022-08-25T11:33:59.867Z,8.67
2022-08-25T11:36:30.305Z,8.47
2022-08-25T11:39:05.846Z,8.60
2022-08-25T11:41:37.662Z,9.20
2022-08-25T11:44:12.029Z,9.23
2022-08-25T11:46:49.804Z,8.60
2022-08-25T11:49:28.230Z,9.57
2022-08-25T11:52:00.699Z,11.10
2022-08-25T11:54:36.331Z,9.67
2022-08-25T11:57:06.915Z,9.00
2022-08-25T11:59:53.185Z,8.57
2022-08-25T12:02:31.211Z,8.63
2022-08-25T12:04:58.919Z,8.10
2022-08-25T12:07:27.744Z,8.70
2022-08-25T12:10:25.589Z,8.20
2022-08-25T12:12:59.140Z,9.27
2022-08-25T12:15:29.235Z,9.90
2022-08-25T12:18:11.301Z,8.90
2022-08-25T12:20:58.445Z,8.90
2022-08-25T12:23:28.854Z,9.53
2022-08-25T12:25:58.671Z,10.13
2022-08-25T12:28:37.303Z,10.60
2022-08-25T12:31:10.097Z,9.03
2022-08-25T12:33:43.220Z,9.13
2022-08-25T12:36:12.611Z,8.40
2022-08-25T12:38:44.746Z,9.10
2022-08-25T12:41:18.802Z,14.23
2022-08-25T12:43:48.753Z,8.60
2022-08-25T12:46:37.668Z,8.60
2022-08-25T12:49:12.431Z,7.97
2022-08-25T12:51:49.941Z,9.47
2022-08-25T12:54:22.627Z,8.87
2022-08-25T12:56:54.175Z,9.10
2022-08-25T12:59:32.206Z,8.77
2022-08-25T13:02:07.851Z,8.30
2022-08-25T13:04:46.507Z,7.40
2022-08-25T13:07:22.617Z,8.07
2022-08-25T13:10:04.964Z,8.00
2022-08-25T13:12:35.131Z,7.70
2022-08-25T13:15:04.767Z,7.70
2022-08-25T13:17:34.078Z,10.43
2022-08-25T13:20:14.483Z,7.17
2022-08-25T13:22:42.744Z,8.07
2022-08-25T13:25:17.713Z,8.63
2022-08-25T13:27:49.162Z,7.33
2022-08-25T13:30:28.707Z,6.77
2022-08-25T13:32:57.182Z,7.93
2022-08-25T13:35:32.043Z,7.97
2022-08-25T13:38:13.656Z,6.70
2022-08-25T13:40:43.105Z,7.47
2022-08-25T13:43:14.374Z,6.93
2022-08-25T13:45:45.344Z,9.67
2022-08-25T13:48:22.362Z,7.20
2022-08-25T13:50:52.789Z,7.40
2022-08-25T13:53:23.823Z,7.57
2022-08-25T13:55:53.275Z,7.83
2022-08-25T13:58:24.663Z,8.60
2022-08-25T14:01:22.596Z,7.53
2022-08-25T14:04:15.222Z,8.70
2022-08-25T14:06:43.412Z,8.90
2022-08-25T14:09:16.009Z,8.67
2022-08-25T14:11:46.567Z,8.17
2022-08-25T14:14:31.792Z,8.40
2022-08-25T14:17:21.816Z,8.00
2022-08-25T14:19:56.310Z,8.17
2022-08-25T14:22:24.189Z,8.80
2022-08-25T14:24:53.307Z,8.30
2022-08-25T14:27:21.007Z,11.10
2022-08-25T14:29:52.685Z,8.33
2022-08-25T14:32:22.706Z,9.10
2022-08-25T14:34:50.699Z,8.80
2022-08-25T14:37:20.154Z,7.70
2022-08-25T14:39:54.772Z,9.00
2022-08-25T14:42:25.345Z,10.40
2022-08-25T14:44:54.398Z,9.57
2022-08-25T14:47:25.594Z,8.90
2022-08-25T14:49:53.694Z,7.57
2022-08-25T14:52:22.500Z,9.57
2022-08-25T14:54:50.540Z,7.70
2022-08-25T14:57:18.515Z,8.10
2022-08-25T14:59:46.543Z,8.37
2022-08-25T15:02:19.930Z,8.57
2022-08-25T15:04:51.825Z,8.67
2022-08-25T15:07:37.218Z,7.60
2022-08-25T15:10:08.581Z,8.10
2022-08-25T15:12:47.729Z,7.53
2022-08-25T15:15:16.329Z,7.67
2022-08-25T15:17:47.008Z,8.73
2022-08-25T15:20:22.839Z,8.60
2022-08-25T15:22:50.761Z,9.20
2022-08-25T15:25:18.598Z,7.97
2022-08-25T15:27:46.981Z,8.67
2022-08-25T15:30:15.163Z,8.07
2022-08-25T15:32:42.959Z,8.23
2022-08-25T15:35:11.873Z,8.27
2022-08-25T15:37:48.118Z,9.43
2022-08-25T15:40:16.441Z,8.60
2022-08-25T15:42:46.051Z,12.93
2022-08-25T15:45:14.422Z,7.50
2022-08-25T15:47:42.305Z,9.83
2022-08-25T15:50:11.321Z,7.07
2022-08-25T15:52:47.593Z,8.13
2022-08-25T15:55:18.369Z,8.30
2022-08-25T15:57:47.916Z,8.47
2022-08-25T16:00:18.545Z,7.90
2022-08-25T16:02:46.952Z,8.90
2022-08-25T16:05:16.145Z,8.50
2022-08-25T16:07:45.954Z,8.47
2022-08-25T16:10:14.557Z,8.13
2022-08-25T16:12:44.206Z,7.50
2022-08-25T16:15:12.437Z,9.40
2022-08-25T16:17:44.330Z,8.93
2022-08-25T16:20:13.823Z,9.27
2022-08-25T16:23:05.267Z,8.63
2022-08-25T16:25:33.803Z,9.87
2022-08-25T16:28:05.891Z,9.10
2022-08-25T16:30:34.146Z,8.70
2022-08-25T16:33:02.801Z,10.17
2022-08-25T16:35:31.054Z,8.00
2022-08-25T16:38:00.311Z,9.03
2022-08-25T16:40:31.898Z,9.53
2022-08-25T16:43:00.167Z,11.10
2022-08-25T16:45:29.690Z,8.93
2022-08-25T16:47:58.603Z,9.37
2022-08-25T16:50:26.592Z,8.63
2022-08-25T16:53:13.567Z,10.27
2022-08-25T16:55:41.610Z,9.33
2022-08-25T16:58:13.389Z,9.57
2022-08-25T17:00:44.024Z,9.80
2022-08-25T17:03:13.183Z,9.63
2022-08-25T17:05:42.052Z,9.73
2022-08-25T17:08:27.738Z,10.63
2022-08-25T17:10:56.085Z,8.50
2022-08-25T17:13:23.894Z,10.23
2022-08-25T17:15:53.530Z,9.43
2022-08-25T17:18:21.479Z,10.37
2022-08-25T17:20:59.027Z,9.27
2022-08-25T17:23:27.002Z,8.97
2022-08-25T17:25:55.154Z,8.33
2022-08-25T17:28:23.784Z,10.77
2022-08-25T17:30:55.163Z,11.73
2022-08-25T17:33:24.476Z,9.57
2022-08-25T17:35:53.270Z,11.17
2022-08-25T17:38:26.087Z,13.80
2022-08-25T17:40:55.072Z,12.20
2022-08-25T17:43:23.012Z,11.17
2022-08-25T17:45:51.603Z,10.83
2022-08-25T17:48:21.016Z,12.33
2022-08-25T17:50:49.353Z,10.63
2022-08-25T17:53:18.827Z,15.77
2022-08-25T17:55:46.772Z,13.10
2022-08-25T17:58:15.949Z,13.20
2022-08-25T18:00:47.085Z,12.83
2022-08-25T18:03:15.130Z,14.37
2022-08-25T18:05:45.140Z,11.73
2022-08-25T18:08:14.941Z,11.20
2022-08-25T18:10:43.610Z,13.40
2022-08-25T18:13:11.353Z,13.70
2022-08-25T18:15:42.323Z,15.10
2022-08-25T18:18:10.853Z,11.97
2022-08-25T18:20:41.159Z,12.00
2022-08-25T18:23:13.712Z,12.10
2022-08-25T18:25:43.055Z,12.67
2022-08-25T18:28:11.610Z,11.67
2022-08-25T18:30:40.536Z,13.20
2022-08-25T18:33:08.962Z,13.00
2022-08-25T18:35:38.623Z,12.27
2022-08-25T18:38:25.455Z,13.10
2022-08-25T18:40:57.487Z,11.93
2022-08-25T18:43:25.755Z,12.57
2022-08-25T18:45:55.021Z,14.17
2022-08-25T18:48:26.430Z,25.57
2022-08-25T18:50:56.444Z,16.80
2022-08-25T18:53:30.615Z,16.43
2022-08-25T18:56:07.762Z,16.23
2022-08-25T18:58:39.804Z,14.03
2022-08-25T19:01:09.399Z,13.77
2022-08-25T19:03:39.556Z,13.03
2022-08-25T19:06:08.096Z,13.37
2022-08-25T19:08:36.654Z,14.10
2022-08-25T19:11:04.767Z,13.17
2022-08-25T19:13:36.121Z,13.60
2022-08-25T19:16:09.697Z,14.67
2022-08-25T19:18:39.040Z,13.77
2022-08-25T19:21:07.736Z,13.20
2022-08-25T19:23:38.092Z,15.80
2022-08-25T19:26:08.101Z,15.50
2022-08-25T19:28:45.786Z,15.30
2022-08-25T19:31:16.807Z,15.60
2022-08-25T19:33:46.644Z,15.77
2022-08-25T19:36:15.526Z,15.80
2022-08-25T19:38:44.197Z,13.17
2022-08-25T19:41:15.143Z,13.20
2022-08-25T19:43:56.757Z,16.50
2022-08-25T19:46:32.843Z,14.57
2022-08-25T19:49:07.751Z,16.43
2022-08-25T19:51:37.608Z,14.13
2022-08-25T19:54:05.969Z,15.73
2022-08-25T19:56:35.131Z,16.40
2022-08-25T19:59:05.937Z,16.77
2022-08-25T20:01:36.148Z,16.80
2022-08-25T20:04:04.448Z,18.40
2022-08-25T20:06:33.172Z,22.03
2022-08-25T20:09:01.360Z,39.43
2022-08-25T20:11:29.780Z,28.70
2022-08-25T20:14:00.465Z,20.27
2022-08-25T20:16:32.818Z,18.30
2022-08-25T20:19:01.128Z,19.47
2022-08-25T20:21:31.721Z,17.40
2022-08-25T20:24:17.402Z,18.47
2022-08-25T20:26:45.748Z,19.53
2022-08-25T20:29:15.695Z,24.23
2022-08-25T20:31:45.348Z,18.70
2022-08-25T20:34:14.299Z,20.80
2022-08-25T20:36:50.002Z,18.50
2022-08-25T20:39:18.900Z,19.00
2022-08-25T20:41:48.245Z,17.80
2022-08-25T20:44:17.278Z,18.00
2022-08-25T20:46:47.193Z,20.63
2022-08-25T20:49:15.175Z,20.77
2022-08-25T20:51:43.057Z,18.77
2022-08-25T20:54:13.240Z,20.73
2022-08-25T20:56:41.107Z,17.37
2022-08-25T20:59:10.294Z,23.53
2022-08-25T21:01:39.729Z,22.90
2022-08-25T21:04:10.008Z,22.00
2022-08-25T21:06:42.993Z,20.30
2022-08-25T21:09:15.713Z,21.10
2022-08-25T21:11:43.973Z,18.30
2022-08-25T21:14:13.527Z,19.23
2022-08-25T21:16:46.211Z,21.20
2022-08-25T21:19:17.028Z,21.70
2022-08-25T21:21:59.932Z,19.77
2022-08-25T21:24:28.891Z,19.27
2022-08-25T21:26:57.798Z,17.90
2022-08-25T21:29:28.539Z,18.13
2022-08-25T21:31:57.062Z,20.33
2022-08-25T21:34:28.188Z,24.17
2022-08-25T21:36:57.767Z,17.63
2022-08-25T21:39:28.795Z,19.00
2022-08-25T21:41:59.933Z,19.10
2022-08-25T21:44:28.645Z,19.90
2022-08-25T21:46:56.458Z,28.60
2022-08-25T21:49:24.951Z,21.50
2022-08-25T21:52:03.368Z,18.80
2022-08-25T21:54:32.959Z,19.60
2022-08-25T21:57:01.758Z,16.90
2022-08-25T21:59:30.206Z,17.13
2022-08-25T22:01:58.744Z,22.80
2022-08-25T22:04:26.611Z,23.43
2022-08-25T22:06:58.288Z,17.73
2022-08-25T22:09:28.411Z,17.60
2022-08-25T22:11:56.367Z,17.20
2022-08-25T22:14:26.010Z,19.07
2022-08-25T22:16:56.446Z,17.30
2022-08-25T22:19:24.845Z,16.13
2022-08-25T22:21:53.823Z,17.87
2022-08-25T22:24:28.386Z,18.07
2022-08-25T22:26:57.100Z,17.43
2022-08-25T22:29:26.969Z,15.23
2022-08-25T22:31:59.417Z,15.03
2022-08-25T22:34:32.528Z,16.03
2022-08-25T22:37:01.033Z,13.87
2022-08-25T22:39:30.852Z,15.27
2022-08-25T22:41:58.775Z,16.20
2022-08-25T22:44:27.067Z,16.17
2022-08-25T22:46:54.970Z,14.20
2022-08-25T22:49:22.813Z,14.70
2022-08-25T22:51:50.885Z,15.13
2022-08-25T22:54:18.624Z,14.97
2022-08-25T22:56:47.891Z,13.37
2022-08-25T22:59:16.109Z,14.47
2022-08-25T23:01:44.282Z,14.80
2022-08-25T23:04:12.172Z,16.90
2022-08-25T23:06:40.701Z,16.67
2022-08-25T23:09:10.747Z,15.53
2022-08-25T23:11:39.257Z,14.77
2022-08-25T23:14:10.920Z,14.80
2022-08-25T23:16:39.645Z,15.00
2022-08-25T23:19:10.525Z,15.93
2022-08-25T23:21:56.819Z,15.73
2022-08-25T23:24:29.917Z,15.20
2022-08-25T23:26:58.860Z,16.67
2022-08-25T23:29:28.513Z,14.53
2022-08-25T23:31:56.730Z,14.90
2022-08-25T23:34:25.096Z,14.73
2022-08-25T23:36:52.985Z,21.13
2022-08-25T23:39:21.866Z,16.10
2022-08-25T23:41:50.536Z,13.07
2022-08-25T23:44:18.521Z,16.53
2022-08-25T23:46:48.589Z,14.90
2022-08-25T23:49:18.505Z,15.90
2022-08-25T23:51:47.354Z,14.63
2022-08-25T23:54:15.901Z,16.00
2022-08-25T23:56:52.281Z,12.93
2022-08-25T23:59:24.285Z,14.23
